sensor_id;sensor_type;location;lat;lon;timestamp;pressure;altitude;pressure_sealevel;temperature
28305;BMP280;15569;42.652;23.040;2022-08-19T00:00:07;92887.94;;;31.09
28305;BMP280;15569;42.652;23.040;2022-08-19T00:02:34;92891.38;;;31.12
28305;BMP280;15569;42.652;23.040;2022-08-19T00:04:59;92895.09;;;31.06
28305;BMP280;15569;42.652;23.040;2022-08-19T00:07:24;92897.09;;;31.08
28305;BMP280;15569;42.652;23.040;2022-08-19T00:09:50;92896.63;;;31.01
28305;BMP280;15569;42.652;23.040;2022-08-19T00:12:15;92908.50;;;31.04
28305;BMP280;15569;42.652;23.040;2022-08-19T00:14:41;92914.09;;;31.04
28305;BMP280;15569;42.652;23.040;2022-08-19T00:17:07;92914.84;;;31.02
28305;BMP280;15569;42.652;23.040;2022-08-19T00:19:34;92917.56;;;31.04
28305;BMP280;15569;42.652;23.040;2022-08-19T00:22:00;92915.59;;;31.01
28305;BMP280;15569;42.652;23.040;2022-08-19T00:24:27;92911.34;;;31.02
28305;BMP280;15569;42.652;23.040;2022-08-19T00:26:55;92908.53;;;31.02
28305;BMP280;15569;42.652;23.040;2022-08-19T00:29:22;92910.75;;;30.99
28305;BMP280;15569;42.652;23.040;2022-08-19T00:31:48;92905.13;;;30.99
28305;BMP280;15569;42.652;23.040;2022-08-19T00:34:15;92913.63;;;30.97
28305;BMP280;15569;42.652;23.040;2022-08-19T00:36:42;92905.88;;;30.98
28305;BMP280;15569;42.652;23.040;2022-08-19T00:39:08;92898.91;;;30.97
28305;BMP280;15569;42.652;23.040;2022-08-19T00:41:34;92901.09;;;30.94
28305;BMP280;15569;42.652;23.040;2022-08-19T00:46:28;92896.28;;;30.91
28305;BMP280;15569;42.652;23.040;2022-08-19T00:48:54;92890.22;;;30.84
28305;BMP280;15569;42.652;23.040;2022-08-19T00:51:21;92895.81;;;30.84
28305;BMP280;15569;42.652;23.040;2022-08-19T00:53:48;92898.63;;;30.84
28305;BMP280;15569;42.652;23.040;2022-08-19T00:56:14;92890.25;;;30.82
28305;BMP280;15569;42.652;23.040;2022-08-19T00:58:40;92893.97;;;30.77
28305;BMP280;15569;42.652;23.040;2022-08-19T01:01:06;92891.16;;;30.77
28305;BMP280;15569;42.652;23.040;2022-08-19T01:03:33;92899.50;;;30.79
28305;BMP280;15569;42.652;23.040;2022-08-19T01:05:58;92888.34;;;30.77
28305;BMP280;15569;42.652;23.040;2022-08-19T01:08:25;92893.22;;;30.78
28305;BMP280;15569;42.652;23.040;2022-08-19T01:10:56;92888.22;;;30.81
28305;BMP280;15569;42.652;23.040;2022-08-19T01:13:25;92888.16;;;30.83
28305;BMP280;15569;42.652;23.040;2022-08-19T01:16:07;92876.56;;;30.72
28305;BMP280;15569;42.652;23.040;2022-08-19T01:18:38;92889.19;;;30.73
28305;BMP280;15569;42.652;23.040;2022-08-19T01:23:51;92882.50;;;30.62
28305;BMP280;15569;42.652;23.040;2022-08-19T01:26:20;92890.69;;;30.70
28305;BMP280;15569;42.652;23.040;2022-08-19T01:28:48;92886.47;;;30.69
28305;BMP280;15569;42.652;23.040;2022-08-19T01:31:17;92901.22;;;30.70
28305;BMP280;15569;42.652;23.040;2022-08-19T01:33:44;92897.00;;;30.71
28305;BMP280;15569;42.652;23.040;2022-08-19T01:36:13;92891.47;;;30.67
28305;BMP280;15569;42.652;23.040;2022-08-19T01:38:41;92894.97;;;30.67
28305;BMP280;15569;42.652;23.040;2022-08-19T01:41:10;92902.72;;;30.67
28305;BMP280;15569;42.652;23.040;2022-08-19T01:43:36;92896.41;;;30.66
28305;BMP280;15569;42.652;23.040;2022-08-19T01:46:03;92892.19;;;30.67
28305;BMP280;15569;42.652;23.040;2022-08-19T01:48:36;92896.69;;;30.58
28305;BMP280;15569;42.652;23.040;2022-08-19T01:51:02;92898.72;;;30.60
28305;BMP280;15569;42.652;23.040;2022-08-19T01:53:28;92893.19;;;30.58
28305;BMP280;15569;42.652;23.040;2022-08-19T01:55:54;92894.75;;;30.53
28305;BMP280;15569;42.652;23.040;2022-08-19T01:58:22;92885.66;;;30.52
28305;BMP280;15569;42.652;23.040;2022-08-19T02:00:49;92893.38;;;30.52
28305;BMP280;15569;42.652;23.040;2022-08-19T02:03:15;92889.81;;;30.53
28305;BMP280;15569;42.652;23.040;2022-08-19T02:05:41;92882.84;;;30.52
28305;BMP280;15569;42.652;23.040;2022-08-19T02:08:08;92880.34;;;30.42
28305;BMP280;15569;42.652;23.040;2022-08-19T02:10:39;92892.69;;;30.51
28305;BMP280;15569;42.652;23.040;2022-08-19T02:13:05;92880.78;;;30.51
28305;BMP280;15569;42.652;23.040;2022-08-19T02:15:31;92882.28;;;30.48
28305;BMP280;15569;42.652;23.040;2022-08-19T02:17:57;92889.34;;;30.47
28305;BMP280;15569;42.652;23.040;2022-08-19T02:20:22;92890.16;;;30.43
28305;BMP280;15569;42.652;23.040;2022-08-19T02:22:48;92890.03;;;30.47
28305;BMP280;15569;42.652;23.040;2022-08-19T02:25:13;92895.00;;;30.45
28305;BMP280;15569;42.652;23.040;2022-08-19T02:27:40;92902.69;;;30.46
28305;BMP280;15569;42.652;23.040;2022-08-19T02:30:08;92900.59;;;30.45
28305;BMP280;15569;42.652;23.040;2022-08-19T02:32:34;92887.97;;;30.46
28305;BMP280;15569;42.652;23.040;2022-08-19T02:35:00;92888.78;;;30.42
28305;BMP280;15569;42.652;23.040;2022-08-19T02:37:25;92890.16;;;30.43
28305;BMP280;15569;42.652;23.040;2022-08-19T02:40:10;92884.78;;;30.35
28305;BMP280;15569;42.652;23.040;2022-08-19T02:42:36;92886.09;;;30.38
28305;BMP280;15569;42.652;23.040;2022-08-19T02:45:02;92879.25;;;30.33
28305;BMP280;15569;42.652;23.040;2022-08-19T02:47:27;92886.09;;;30.38
28305;BMP280;15569;42.652;23.040;2022-08-19T02:49:52;92885.44;;;30.38
28305;BMP280;15569;42.652;23.040;2022-08-19T02:52:18;92891.72;;;30.38
28305;BMP280;15569;42.652;23.040;2022-08-19T02:54:43;92886.09;;;30.38
28305;BMP280;15569;42.652;23.040;2022-08-19T02:57:09;92886.78;;;30.39
28305;BMP280;15569;42.652;23.040;2022-08-19T02:59:35;92888.25;;;30.38
28305;BMP280;15569;42.652;23.040;2022-08-19T03:02:01;92891.72;;;30.38
28305;BMP280;15569;42.652;23.040;2022-08-19T03:04:26;92891.03;;;30.38
28305;BMP280;15569;42.652;23.040;2022-08-19T03:06:52;92891.06;;;30.36
28305;BMP280;15569;42.652;23.040;2022-08-19T03:09:19;92898.16;;;30.35
28305;BMP280;15569;42.652;23.040;2022-08-19T03:11:45;92895.97;;;30.37
28305;BMP280;15569;42.652;23.040;2022-08-19T03:14:11;92901.66;;;30.33
28305;BMP280;15569;42.652;23.040;2022-08-19T03:16:44;92897.56;;;30.30
28305;BMP280;15569;42.652;23.040;2022-08-19T03:19:09;92883.72;;;30.24
28305;BMP280;15569;42.652;23.040;2022-08-19T03:21:35;92899.75;;;30.28
28305;BMP280;15569;42.652;23.040;2022-08-19T03:24:06;92900.44;;;30.28
28305;BMP280;15569;42.652;23.040;2022-08-19T03:26:32;92894.22;;;30.26
28305;BMP280;15569;42.652;23.040;2022-08-19T03:29:02;92902.03;;;30.21
28305;BMP280;15569;42.652;23.040;2022-08-19T03:31:28;92890.97;;;30.17
28305;BMP280;15569;42.652;23.040;2022-08-19T03:33:53;92900.63;;;30.22
28305;BMP280;15569;42.652;23.040;2022-08-19T03:36:22;92906.94;;;30.23
28305;BMP280;15569;42.652;23.040;2022-08-19T03:38:56;92909.16;;;30.18
28305;BMP280;15569;42.652;23.040;2022-08-19T03:41:31;92907.72;;;30.19
28305;BMP280;15569;42.652;23.040;2022-08-19T03:43:57;92912.03;;;30.16
28305;BMP280;15569;42.652;23.040;2022-08-19T03:46:28;92912.03;;;30.16
28305;BMP280;15569;42.652;23.040;2022-08-19T03:48:56;92922.44;;;30.20
28305;BMP280;15569;42.652;23.040;2022-08-19T03:51:25;92918.25;;;30.19
28305;BMP280;15569;42.652;23.040;2022-08-19T03:53:52;92913.34;;;30.19
28305;BMP280;15569;42.652;23.040;2022-08-19T03:56:18;92914.78;;;30.18
28305;BMP280;15569;42.652;23.040;2022-08-19T03:58:44;92916.75;;;30.22
28305;BMP280;15569;42.652;23.040;2022-08-19T04:01:14;92920.94;;;30.23
28305;BMP280;15569;42.652;23.040;2022-08-19T04:03:40;92911.97;;;30.18
28305;BMP280;15569;42.652;23.040;2022-08-19T04:06:11;92922.31;;;30.24
28305;BMP280;15569;42.652;23.040;2022-08-19T04:08:39;92923.63;;;30.27
28305;BMP280;15569;42.652;23.040;2022-08-19T04:11:13;92924.38;;;30.25
28305;BMP280;15569;42.652;23.040;2022-08-19T04:13:40;92932.03;;;30.27
28305;BMP280;15569;42.652;23.040;2022-08-19T04:16:06;92935.50;;;30.27
28305;BMP280;15569;42.652;23.040;2022-08-19T04:18:33;92934.78;;;30.29
28305;BMP280;15569;42.652;23.040;2022-08-19T04:20:59;92935.59;;;30.25
28305;BMP280;15569;42.652;23.040;2022-08-19T04:23:24;92941.72;;;30.32
28305;BMP280;15569;42.652;23.040;2022-08-19T04:25:50;92940.88;;;30.35
28305;BMP280;15569;42.652;23.040;2022-08-19T04:28:16;92942.34;;;30.34
28305;BMP280;15569;42.652;23.040;2022-08-19T04:30:43;92937.94;;;30.39
28305;BMP280;15569;42.652;23.040;2022-08-19T04:33:11;92942.16;;;30.40
28305;BMP280;15569;42.652;23.040;2022-08-19T04:35:44;92940.66;;;30.43
28305;BMP280;15569;42.652;23.040;2022-08-19T04:38:11;92937.72;;;30.47
28305;BMP280;15569;42.652;23.040;2022-08-19T04:40:48;92941.84;;;30.50
28305;BMP280;15569;42.652;23.040;2022-08-19T04:43:33;92934.78;;;30.51
28305;BMP280;15569;42.652;23.040;2022-08-19T04:46:07;92937.44;;;30.55
28305;BMP280;15569;42.652;23.040;2022-08-19T04:48:34;92939.47;;;30.59
28305;BMP280;15569;42.652;23.040;2022-08-19T04:50:59;92938.63;;;30.62
28305;BMP280;15569;42.652;23.040;2022-08-19T05:39:58;92943.25;;;30.49
28305;BMP280;15569;42.652;23.040;2022-08-19T05:42:23;92949.25;;;30.60
28305;BMP280;15569;42.652;23.040;2022-08-19T05:44:50;92948.78;;;30.74
28305;BMP280;15569;42.652;23.040;2022-08-19T05:47:16;92952.56;;;30.87
28305;BMP280;15569;42.652;23.040;2022-08-19T05:49:42;92950.25;;;30.93
28305;BMP280;15569;42.652;23.040;2022-08-19T05:52:11;92951.47;;;30.78
28305;BMP280;15569;42.652;23.040;2022-08-19T05:54:39;92951.13;;;28.93
28305;BMP280;15569;42.652;23.040;2022-08-19T05:57:07;92952.91;;;29.60
28305;BMP280;15569;42.652;23.040;2022-08-19T05:59:32;92948.44;;;29.94
28305;BMP280;15569;42.652;23.040;2022-08-19T06:01:59;92938.03;;;30.15
28305;BMP280;15569;42.652;23.040;2022-08-19T06:04:25;92942.03;;;30.44
28305;BMP280;15569;42.652;23.040;2022-08-19T06:06:53;92948.44;;;29.94
28305;BMP280;15569;42.652;23.040;2022-08-19T06:09:19;92949.75;;;29.97
28305;BMP280;15569;42.652;23.040;2022-08-19T06:11:53;92944.44;;;30.34
28305;BMP280;15569;42.652;23.040;2022-08-19T06:14:25;92947.06;;;30.62
28305;BMP280;15569;42.652;23.040;2022-08-19T06:16:51;92950.50;;;30.85
28305;BMP280;15569;42.652;23.040;2022-08-19T06:19:19;92952.56;;;31.07
28305;BMP280;15569;42.652;23.040;2022-08-19T06:21:47;92944.78;;;31.30
28305;BMP280;15569;42.652;23.040;2022-08-19T06:24:18;92951.47;;;31.39
28305;BMP280;15569;42.652;23.040;2022-08-19T06:26:45;92951.69;;;31.54
28305;BMP280;15569;42.652;23.040;2022-08-19T06:29:14;92942.97;;;31.62
28305;BMP280;15569;42.652;23.040;2022-08-19T06:31:46;92943.88;;;30.95
28305;BMP280;15569;42.652;23.040;2022-08-19T06:34:11;92943.69;;;30.13
28305;BMP280;15569;42.652;23.040;2022-08-19T06:36:40;92947.72;;;30.85
28305;BMP280;15569;42.652;23.040;2022-08-19T06:39:12;92956.16;;;31.06
28305;BMP280;15569;42.652;23.040;2022-08-19T06:41:41;92951.66;;;29.28
28305;BMP280;15569;42.652;23.040;2022-08-19T06:44:09;92950.31;;;30.26
28305;BMP280;15569;42.652;23.040;2022-08-19T06:46:36;92949.66;;;30.68
28305;BMP280;15569;42.652;23.040;2022-08-19T06:49:02;92941.38;;;30.64
28305;BMP280;15569;42.652;23.040;2022-08-19T06:51:28;92954.03;;;30.63
28305;BMP280;15569;42.652;23.040;2022-08-19T06:53:54;92939.34;;;30.83
28305;BMP280;15569;42.652;23.040;2022-08-19T06:56:27;92958.56;;;31.18
28305;BMP280;15569;42.652;23.040;2022-08-19T06:58:59;92944.63;;;31.34
28305;BMP280;15569;42.652;23.040;2022-08-19T07:01:25;92949.84;;;31.46
28305;BMP280;15569;42.652;23.040;2022-08-19T07:03:51;92958.28;;;31.26
28305;BMP280;15569;42.652;23.040;2022-08-19T07:06:17;92970.53;;;29.30
28305;BMP280;15569;42.652;23.040;2022-08-19T07:08:43;92964.84;;;28.77
28305;BMP280;15569;42.652;23.040;2022-08-19T07:11:11;92964.31;;;27.73
28305;BMP280;15569;42.652;23.040;2022-08-19T07:13:38;92968.47;;;28.71
28305;BMP280;15569;42.652;23.040;2022-08-19T07:16:06;92959.88;;;28.79
28305;BMP280;15569;42.652;23.040;2022-08-19T07:18:32;92943.34;;;29.51
28305;BMP280;15569;42.652;23.040;2022-08-19T07:23:29;92941.69;;;30.54
28305;BMP280;15569;42.652;23.040;2022-08-19T07:25:54;92948.25;;;30.90
28305;BMP280;15569;42.652;23.040;2022-08-19T07:28:20;92953.13;;;31.32
28305;BMP280;15569;42.652;23.040;2022-08-19T07:30:47;92950.97;;;31.14
28305;BMP280;15569;42.652;23.040;2022-08-19T07:33:15;92951.91;;;31.66
28305;BMP280;15569;42.652;23.040;2022-08-19T07:35:41;92953.81;;;31.72
28305;BMP280;15569;42.652;23.040;2022-08-19T07:38:07;92945.13;;;31.20
28305;BMP280;15569;42.652;23.040;2022-08-19T07:40:32;92949.34;;;31.60
28305;BMP280;15569;42.652;23.040;2022-08-19T07:42:58;92937.50;;;31.37
28305;BMP280;15569;42.652;23.040;2022-08-19T07:45:23;92953.84;;;31.90
28305;BMP280;15569;42.652;23.040;2022-08-19T07:47:49;92943.16;;;31.95
28305;BMP280;15569;42.652;23.040;2022-08-19T07:50:15;92940.03;;;30.84
28305;BMP280;15569;42.652;23.040;2022-08-19T07:52:40;92959.78;;;31.82
28305;BMP280;15569;42.652;23.040;2022-08-19T07:55:10;92955.66;;;32.16
28305;BMP280;15569;42.652;23.040;2022-08-19T07:57:35;92950.13;;;31.38
28305;BMP280;15569;42.652;23.040;2022-08-19T08:00:02;92962.19;;;29.26
28305;BMP280;15569;42.652;23.040;2022-08-19T08:02:28;92948.72;;;30.53
28305;BMP280;15569;42.652;23.040;2022-08-19T08:04:53;92948.75;;;31.17
28305;BMP280;15569;42.652;23.040;2022-08-19T08:07:37;92963.28;;;31.23
28305;BMP280;15569;42.652;23.040;2022-08-19T08:10:21;92958.31;;;30.15
28305;BMP280;15569;42.652;23.040;2022-08-19T08:12:47;92945.72;;;30.82
28305;BMP280;15569;42.652;23.040;2022-08-19T08:15:15;92960.22;;;29.49
28305;BMP280;15569;42.652;23.040;2022-08-19T08:17:42;92954.88;;;28.84
28305;BMP280;15569;42.652;23.040;2022-08-19T08:20:08;92956.69;;;28.36
28305;BMP280;15569;42.652;23.040;2022-08-19T08:22:34;92951.47;;;28.51
28305;BMP280;15569;42.652;23.040;2022-08-19T08:25:22;92957.00;;;28.53
28305;BMP280;15569;42.652;23.040;2022-08-19T08:27:48;92945.25;;;29.32
28305;BMP280;15569;42.652;23.040;2022-08-19T08:30:21;92938.78;;;29.89
28305;BMP280;15569;42.652;23.040;2022-08-19T08:32:47;92933.59;;;30.44
28305;BMP280;15569;42.652;23.040;2022-08-19T08:35:16;92930.91;;;30.83
28305;BMP280;15569;42.652;23.040;2022-08-19T08:37:43;92938.75;;;31.22
28305;BMP280;15569;42.652;23.040;2022-08-19T08:43:13;92934.50;;;31.02
28305;BMP280;15569;42.652;23.040;2022-08-19T08:45:48;92924.03;;;31.60
28305;BMP280;15569;42.652;23.040;2022-08-19T08:48:27;92932.78;;;31.52
28305;BMP280;15569;42.652;23.040;2022-08-19T08:50:56;92921.47;;;31.73
28305;BMP280;15569;42.652;23.040;2022-08-19T08:53:24;92922.31;;;32.25
28305;BMP280;15569;42.652;23.040;2022-08-19T08:55:50;92915.34;;;32.40
28305;BMP280;15569;42.652;23.040;2022-08-19T08:58:29;92916.66;;;31.69
28305;BMP280;15569;42.652;23.040;2022-08-19T09:00:56;92918.19;;;31.66
28305;BMP280;15569;42.652;23.040;2022-08-19T09:03:25;92924.78;;;30.56
28305;BMP280;15569;42.652;23.040;2022-08-19T09:06:14;92918.00;;;30.49
28305;BMP280;15569;42.652;23.040;2022-08-19T09:11:44;92907.41;;;29.84
28305;BMP280;15569;42.652;23.040;2022-08-19T09:16:46;92895.06;;;30.86
28305;BMP280;15569;42.652;23.040;2022-08-19T09:19:13;92909.25;;;31.80
28305;BMP280;15569;42.652;23.040;2022-08-19T09:21:39;92894.66;;;32.13
28305;BMP280;15569;42.652;23.040;2022-08-19T09:24:05;92904.75;;;32.60
28305;BMP280;15569;42.652;23.040;2022-08-19T09:26:31;92892.72;;;32.78
28305;BMP280;15569;42.652;23.040;2022-08-19T09:28:58;92899.44;;;31.79
28305;BMP280;15569;42.652;23.040;2022-08-19T09:31:27;92894.22;;;31.30
28305;BMP280;15569;42.652;23.040;2022-08-19T09:33:53;92897.50;;;31.16
28305;BMP280;15569;42.652;23.040;2022-08-19T09:36:24;92886.94;;;31.37
28305;BMP280;15569;42.652;23.040;2022-08-19T09:38:51;92884.75;;;32.14
28305;BMP280;15569;42.652;23.040;2022-08-19T09:41:19;92887.69;;;32.28
28305;BMP280;15569;42.652;23.040;2022-08-19T09:43:47;92893.06;;;31.23
28305;BMP280;15569;42.652;23.040;2022-08-19T09:46:14;92885.84;;;31.28
28305;BMP280;15569;42.652;23.040;2022-08-19T09:48:41;92887.75;;;31.34
28305;BMP280;15569;42.652;23.040;2022-08-19T09:51:12;92876.56;;;31.13
28305;BMP280;15569;42.652;23.040;2022-08-19T09:53:44;92882.13;;;31.73
28305;BMP280;15569;42.652;23.040;2022-08-19T09:56:10;92873.59;;;32.12
28305;BMP280;15569;42.652;23.040;2022-08-19T09:58:37;92870.09;;;31.93
28305;BMP280;15569;42.652;23.040;2022-08-19T10:01:03;92870.13;;;31.74
28305;BMP280;15569;42.652;23.040;2022-08-19T10:03:31;92874.72;;;31.45
28305;BMP280;15569;42.652;23.040;2022-08-19T10:05:59;92874.72;;;31.45
28305;BMP280;15569;42.652;23.040;2022-08-19T10:08:28;92863.25;;;31.69
28305;BMP280;15569;42.652;23.040;2022-08-19T10:10:55;92843.13;;;32.00
28305;BMP280;15569;42.652;23.040;2022-08-19T10:13:24;92857.16;;;32.18
28305;BMP280;15569;42.652;23.040;2022-08-19T10:15:53;92863.53;;;32.69
28305;BMP280;15569;42.652;23.040;2022-08-19T10:18:20;92857.19;;;32.35
28305;BMP280;15569;42.652;23.040;2022-08-19T10:20:48;92852.47;;;32.13
28305;BMP280;15569;42.652;23.040;2022-08-19T10:23:14;92852.44;;;32.98
28305;BMP280;15569;42.652;23.040;2022-08-19T10:25:41;92849.31;;;33.37
28305;BMP280;15569;42.652;23.040;2022-08-19T10:28:06;92847.47;;;33.91
28305;BMP280;15569;42.652;23.040;2022-08-19T10:30:33;92831.16;;;34.08
28305;BMP280;15569;42.652;23.040;2022-08-19T10:32:59;92851.47;;;34.40
28305;BMP280;15569;42.652;23.040;2022-08-19T10:35:24;92837.91;;;34.57
28305;BMP280;15569;42.652;23.040;2022-08-19T10:37:52;92840.09;;;34.42
28305;BMP280;15569;42.652;23.040;2022-08-19T10:40:18;92834.72;;;34.92
28305;BMP280;15569;42.652;23.040;2022-08-19T10:42:43;92834.31;;;35.00
28305;BMP280;15569;42.652;23.040;2022-08-19T10:45:10;92831.53;;;35.12
28305;BMP280;15569;42.652;23.040;2022-08-19T10:47:36;92834.69;;;35.06
28305;BMP280;15569;42.652;23.040;2022-08-19T10:50:02;92836.41;;;35.14
28305;BMP280;15569;42.652;23.040;2022-08-19T10:52:48;92840.44;;;35.04
28305;BMP280;15569;42.652;23.040;2022-08-19T10:55:13;92837.41;;;34.67
28305;BMP280;15569;42.652;23.040;2022-08-19T10:57:57;92829.28;;;35.15
28305;BMP280;15569;42.652;23.040;2022-08-19T11:00:24;92838.69;;;35.36
28305;BMP280;15569;42.652;23.040;2022-08-19T11:02:51;92834.44;;;34.27
28305;BMP280;15569;42.652;23.040;2022-08-19T11:05:18;92836.09;;;34.93
28305;BMP280;15569;42.652;23.040;2022-08-19T11:07:43;92840.00;;;34.44
28305;BMP280;15569;42.652;23.040;2022-08-19T11:10:11;92822.66;;;33.65
28305;BMP280;15569;42.652;23.040;2022-08-19T11:12:37;92823.41;;;33.63
28305;BMP280;15569;42.652;23.040;2022-08-19T11:15:07;92826.94;;;33.64
28305;BMP280;15569;42.652;23.040;2022-08-19T11:17:40;92820.94;;;33.86
28305;BMP280;15569;42.652;23.040;2022-08-19T11:20:08;92818.59;;;33.31
28305;BMP280;15569;42.652;23.040;2022-08-19T11:22:34;92829.03;;;33.49
28305;BMP280;15569;42.652;23.040;2022-08-19T11:25:00;92832.84;;;33.58
28305;BMP280;15569;42.652;23.040;2022-08-19T11:27:25;92825.31;;;34.27
28305;BMP280;15569;42.652;23.040;2022-08-19T11:29:50;92811.69;;;34.31
28305;BMP280;15569;42.652;23.040;2022-08-19T11:32:17;92802.91;;;35.06
28305;BMP280;15569;42.652;23.040;2022-08-19T11:34:43;92800.53;;;35.50
28305;BMP280;15569;42.652;23.040;2022-08-19T11:37:08;92808.66;;;35.43
28305;BMP280;15569;42.652;23.040;2022-08-19T11:39:35;92806.69;;;34.88
28305;BMP280;15569;42.652;23.040;2022-08-19T11:42:03;92797.56;;;34.31
28305;BMP280;15569;42.652;23.040;2022-08-19T11:44:49;92797.50;;;34.60
28305;BMP280;15569;42.652;23.040;2022-08-19T11:47:15;92800.38;;;34.46
28305;BMP280;15569;42.652;23.040;2022-08-19T11:49:41;92798.72;;;34.78
28305;BMP280;15569;42.652;23.040;2022-08-19T11:52:07;92798.25;;;33.88
28305;BMP280;15569;42.652;23.040;2022-08-19T11:54:33;92799.53;;;33.91
28305;BMP280;15569;42.652;23.040;2022-08-19T11:56:58;92778.72;;;34.55
28305;BMP280;15569;42.652;23.040;2022-08-19T11:59:24;92780.38;;;35.31
28305;BMP280;15569;42.652;23.040;2022-08-19T12:01:51;92781.44;;;35.11
28305;BMP280;15569;42.652;23.040;2022-08-19T12:04:17;92782.22;;;35.61
28305;BMP280;15569;42.652;23.040;2022-08-19T12:06:42;92775.91;;;35.86
28305;BMP280;15569;42.652;23.040;2022-08-19T12:09:09;92782.19;;;36.24
28305;BMP280;15569;42.652;23.040;2022-08-19T12:11:36;92776.78;;;36.55
28305;BMP280;15569;42.652;23.040;2022-08-19T12:14:02;92774.09;;;36.76
28305;BMP280;15569;42.652;23.040;2022-08-19T12:16:29;92770.56;;;36.53
28305;BMP280;15569;42.652;23.040;2022-08-19T12:18:56;92777.28;;;36.35
28305;BMP280;15569;42.652;23.040;2022-08-19T12:21:25;92780.63;;;35.52
28305;BMP280;15569;42.652;23.040;2022-08-19T12:23:53;92779.28;;;35.88
28305;BMP280;15569;42.652;23.040;2022-08-19T12:26:19;92767.34;;;36.59
28305;BMP280;15569;42.652;23.040;2022-08-19T12:28:45;92764.44;;;36.84
28305;BMP280;15569;42.652;23.040;2022-08-19T12:31:13;92765.34;;;37.03
28305;BMP280;15569;42.652;23.040;2022-08-19T12:33:40;92764.97;;;37.09
28305;BMP280;15569;42.652;23.040;2022-08-19T12:36:09;92764.16;;;37.78
28305;BMP280;15569;42.652;23.040;2022-08-19T12:38:35;92760.25;;;38.15
28305;BMP280;15569;42.652;23.040;2022-08-19T12:41:00;92754.03;;;38.12
28305;BMP280;15569;42.652;23.040;2022-08-19T12:43:26;92755.00;;;38.30
28305;BMP280;15569;42.652;23.040;2022-08-19T12:45:52;92749.84;;;38.43
28305;BMP280;15569;42.652;23.040;2022-08-19T12:48:17;92750.69;;;39.02
28305;BMP280;15569;42.652;23.040;2022-08-19T12:50:44;92752.75;;;38.83
28305;BMP280;15569;42.652;23.040;2022-08-19T12:53:13;92751.38;;;37.56
28305;BMP280;15569;42.652;23.040;2022-08-19T12:55:39;92739.66;;;36.95
28305;BMP280;15569;42.652;23.040;2022-08-19T12:58:04;92743.28;;;35.99
28305;BMP280;15569;42.652;23.040;2022-08-19T13:00:30;92731.53;;;35.57
28305;BMP280;15569;42.652;23.040;2022-08-19T13:02:58;92725.66;;;35.24
28305;BMP280;15569;42.652;23.040;2022-08-19T13:05:27;92736.00;;;36.15
28305;BMP280;15569;42.652;23.040;2022-08-19T13:07:55;92738.44;;;36.92
28305;BMP280;15569;42.652;23.040;2022-08-19T13:10:32;92734.59;;;37.41
28305;BMP280;15569;42.652;23.040;2022-08-19T13:13:04;92734.19;;;38.23
28305;BMP280;15569;42.652;23.040;2022-08-19T13:15:34;92721.75;;;38.18
28305;BMP280;15569;42.652;23.040;2022-08-19T13:18:00;92726.66;;;38.80
28305;BMP280;15569;42.652;23.040;2022-08-19T13:20:26;92723.91;;;39.29
28305;BMP280;15569;42.652;23.040;2022-08-19T13:22:52;92722.13;;;38.43
28305;BMP280;15569;42.652;23.040;2022-08-19T13:25:17;92725.47;;;39.36
28305;BMP280;15569;42.652;23.040;2022-08-19T13:27:45;92713.59;;;39.72
28305;BMP280;15569;42.652;23.040;2022-08-19T13:30:14;92716.81;;;39.95
28305;BMP280;15569;42.652;23.040;2022-08-19T13:32:59;92705.31;;;38.60
28305;BMP280;15569;42.652;23.040;2022-08-19T13:35:57;92714.91;;;38.76
28305;BMP280;15569;42.652;23.040;2022-08-19T13:38:23;92722.41;;;37.87
28305;BMP280;15569;42.652;23.040;2022-08-19T13:40:50;92719.41;;;38.41
28305;BMP280;15569;42.652;23.040;2022-08-19T13:43:17;92720.91;;;38.51
28305;BMP280;15569;42.652;23.040;2022-08-19T13:45:43;92705.06;;;39.04
28305;BMP280;15569;42.652;23.040;2022-08-19T13:48:08;92706.84;;;39.29
28305;BMP280;15569;42.652;23.040;2022-08-19T13:50:38;92708.84;;;39.98
28305;BMP280;15569;42.652;23.040;2022-08-19T13:53:05;92703.19;;;39.68
28305;BMP280;15569;42.652;23.040;2022-08-19T13:55:31;92698.78;;;39.99
28305;BMP280;15569;42.652;23.040;2022-08-19T13:57:59;92708.44;;;40.40
28305;BMP280;15569;42.652;23.040;2022-08-19T14:00:28;92707.69;;;40.86
28305;BMP280;15569;42.652;23.040;2022-08-19T14:02:54;92700.19;;;39.89
28305;BMP280;15569;42.652;23.040;2022-08-19T14:05:21;92699.53;;;40.35
28305;BMP280;15569;42.652;23.040;2022-08-19T14:07:47;92692.63;;;40.24
28305;BMP280;15569;42.652;23.040;2022-08-19T14:10:13;92694.50;;;40.08
28305;BMP280;15569;42.652;23.040;2022-08-19T14:12:39;92697.41;;;40.72
28305;BMP280;15569;42.652;23.040;2022-08-19T14:15:07;92702.59;;;39.76
28305;BMP280;15569;42.652;23.040;2022-08-19T14:17:33;92700.72;;;40.11
28305;BMP280;15569;42.652;23.040;2022-08-19T14:20:03;92699.75;;;40.42
28305;BMP280;15569;42.652;23.040;2022-08-19T14:22:31;92695.84;;;41.00
28305;BMP280;15569;42.652;23.040;2022-08-19T14:24:57;92690.69;;;41.20
28305;BMP280;15569;42.652;23.040;2022-08-19T14:27:22;92698.81;;;41.43
28305;BMP280;15569;42.652;23.040;2022-08-19T14:29:49;92696.31;;;41.81
28305;BMP280;15569;42.652;23.040;2022-08-19T14:32:14;92697.72;;;41.12
28305;BMP280;15569;42.652;23.040;2022-08-19T14:34:40;92688.91;;;40.53
28305;BMP280;15569;42.652;23.040;2022-08-19T14:37:05;92688.31;;;38.50
28305;BMP280;15569;42.652;23.040;2022-08-19T14:39:31;92690.63;;;38.87
28305;BMP280;15569;42.652;23.040;2022-08-19T14:41:56;92687.94;;;39.82
28305;BMP280;15569;42.652;23.040;2022-08-19T14:44:23;92680.53;;;40.23
28305;BMP280;15569;42.652;23.040;2022-08-19T14:46:49;92696.09;;;40.52
28305;BMP280;15569;42.652;23.040;2022-08-19T14:49:14;92686.25;;;40.95
28305;BMP280;15569;42.652;23.040;2022-08-19T14:51:39;92683.88;;;40.45
28305;BMP280;15569;42.652;23.040;2022-08-19T14:54:05;92683.34;;;40.87
28305;BMP280;15569;42.652;23.040;2022-08-19T14:56:30;92687.25;;;40.92
28305;BMP280;15569;42.652;23.040;2022-08-19T14:58:56;92674.97;;;41.38
28305;BMP280;15569;42.652;23.040;2022-08-19T15:01:25;92679.81;;;41.31